Time;durP1;ratioP1;P1;durP2;ratioP2;P2;SDS_P1;SDS_P2;PMS_P1;PMS_P2;Temp;Humidity;BMP_temperature;BMP_pressure;BME280_temperature;BME280_humidity;BME280_pressure;Samples;Min_cycle;Max_cycle;Signal;HPM_P1;HPM_P2
2022/08/30 00:01:23;;;;;;;9.00;5.20;;;;;;;18.65;65.85;100569.52;103441;1277;138112;-67
2022/08/30 00:03:53;;;;;;;8.70;4.40;;;;;;;18.60;66.02;100572.52;103624;1277;99473;-68
2022/08/30 00:06:22;;;;;;;8.50;4.10;;;;;;;18.54;66.19;100567.80;103410;1278;138567;-68
2022/08/30 00:08:51;;;;;;;9.20;4.30;;;;;;;18.56;66.20;100568.25;103612;1278;94341;-67
2022/08/30 00:11:24;;;;;;;8.00;4.20;;;;;;;18.56;66.11;100568.41;103523;1278;94828;-69
2022/08/30 00:13:54;;;;;;;7.90;4.30;;;;;;;18.53;66.19;100574.02;103437;1277;138217;-67
2022/08/30 00:16:23;;;;;;;7.80;3.70;;;;;;;18.50;66.38;100575.05;103729;1278;98775;-68
2022/08/30 00:18:51;;;;;;;10.60;3.90;;;;;;;18.46;66.39;100575.29;103410;1278;138481;-68
2022/08/30 00:21:19;;;;;;;8.50;4.60;;;;;;;18.44;66.36;100574.14;103575;1277;94451;-68
2022/08/30 00:23:47;;;;;;;8.40;4.10;;;;;;;18.39;66.67;100571.91;103451;1276;137980;-69
2022/08/30 00:26:15;;;;;;;9.00;4.50;;;;;;;18.32;66.81;100569.94;103486;1280;108646;-68
2022/08/30 00:28:43;;;;;;;7.60;4.00;;;;;;;18.36;66.62;100571.88;103524;1277;99412;-68
2022/08/30 00:31:11;;;;;;;8.50;3.90;;;;;;;18.38;66.65;100568.20;103402;1277;139035;-68
2022/08/30 00:33:42;;;;;;;6.70;3.90;;;;;;;18.40;66.51;100567.91;103611;1278;94411;-69
2022/08/30 00:36:09;;;;;;;7.00;3.90;;;;;;;18.40;66.56;100565.90;103451;1277;137965;-69
2022/08/30 00:38:37;;;;;;;9.90;4.30;;;;;;;18.41;66.48;100563.52;103513;1278;108459;-68
2022/08/30 00:41:05;;;;;;;7.70;3.90;;;;;;;18.42;66.62;100562.56;103505;1278;98812;-68
2022/08/30 00:43:34;;;;;;;7.90;3.90;;;;;;;18.41;66.59;100558.48;103423;1277;137837;-68
2022/08/30 00:46:06;;;;;;;8.30;4.00;;;;;;;18.36;66.57;100558.58;103539;1278;94997;-69
2022/08/30 00:48:39;;;;;;;8.40;4.20;;;;;;;18.33;66.82;100559.27;103465;1278;138128;-68
2022/08/30 00:51:11;;;;;;;8.70;4.10;;;;;;;18.30;66.95;100558.56;103499;1278;108471;-69
2022/08/30 00:53:45;;;;;;;8.50;4.20;;;;;;;18.31;66.97;100564.27;103420;1277;141817;-68
2022/08/30 00:56:14;;;;;;;8.60;4.30;;;;;;;18.29;67.06;100559.88;103504;1278;108874;-68
2022/08/30 00:58:47;;;;;;;7.90;4.20;;;;;;;18.21;67.34;100558.31;103575;1277;94355;-68
2022/08/30 01:01:16;;;;;;;8.00;4.30;;;;;;;18.17;67.36;100558.73;103471;1278;138610;-69
2022/08/30 01:03:45;;;;;;;8.10;4.20;;;;;;;18.19;67.48;100558.81;103535;1277;108364;-69
2022/08/30 01:06:14;;;;;;;8.60;5.00;;;;;;;18.19;67.37;100561.84;103375;1278;138213;-68
2022/08/30 01:08:45;;;;;;;8.70;4.50;;;;;;;18.18;67.50;100564.24;103557;1277;109142;-67
2022/08/30 01:11:18;;;;;;;9.70;4.30;;;;;;;18.18;67.51;100567.67;103487;1278;94366;-68
2022/08/30 01:13:49;;;;;;;9.70;4.50;;;;;;;18.17;67.70;100570.77;103551;1277;138616;-69
2022/08/30 01:16:18;;;;;;;9.40;4.70;;;;;;;18.18;67.53;100570.02;103627;1278;107759;-68
2022/08/30 01:18:48;;;;;;;7.80;4.60;;;;;;;18.21;67.55;100573.05;103555;1278;137903;-67
2022/08/30 01:21:32;;;;;;;8.40;4.40;;;;;;;18.20;67.59;100572.78;103561;1277;108341;-69
2022/08/30 01:24:01;;;;;;;8.30;4.50;;;;;;;18.14;67.80;100570.06;103412;1277;140485;-68
2022/08/30 01:26:29;;;;;;;9.50;4.60;;;;;;;18.15;67.82;100569.30;103769;1278;94388;-68
2022/08/30 01:29:03;;;;;;;9.50;4.60;;;;;;;18.16;67.81;100569.25;103652;1277;108516;-68
2022/08/30 01:31:35;;;;;;;8.50;5.10;;;;;;;18.16;67.75;100563.69;103444;1278;138090;-68
2022/08/30 01:34:06;;;;;;;9.70;4.80;;;;;;;18.17;67.61;100562.70;103625;1277;108927;-69
2022/08/30 01:36:37;;;;;;;8.40;4.70;;;;;;;18.23;67.55;100562.38;103646;1277;139237;-69
2022/08/30 01:39:17;;;;;;;8.50;4.80;;;;;;;18.26;67.47;100565.99;107230;1276;92949;-70
2022/08/30 01:41:46;;;;;;;11.80;5.50;;;;;;;18.22;67.72;100570.52;106201;1277;138468;-69
2022/08/30 01:44:14;;;;;;;9.50;5.20;;;;;;;18.20;67.71;100572.58;103694;1277;99616;-68
2022/08/30 01:46:45;;;;;;;8.80;5.00;;;;;;;18.18;67.89;100571.79;103553;1278;107840;-69
2022/08/30 01:49:17;;;;;;;9.50;4.90;;;;;;;18.19;67.94;100566.17;103703;1278;138392;-69
2022/08/30 01:51:54;;;;;;;8.50;5.00;;;;;;;18.13;68.03;100565.43;103512;1276;94901;-68
2022/08/30 01:54:30;;;;;;;10.60;5.20;;;;;;;18.14;67.89;100568.42;103396;1276;137937;-68
2022/08/30 01:57:08;;;;;;;8.90;5.50;;;;;;;18.13;68.07;100569.39;103528;1277;98787;-68
2022/08/30 01:59:38;;;;;;;10.20;5.10;;;;;;;18.09;68.25;100569.26;103488;1277;138331;-68
2022/08/30 02:02:06;;;;;;;8.50;5.40;;;;;;;18.06;68.28;100570.13;103541;1276;94361;-68
2022/08/30 02:04:35;;;;;;;10.10;5.30;;;;;;;18.04;68.39;100572.56;103502;1277;94878;-69
2022/08/30 02:07:03;;;;;;;8.90;5.20;;;;;;;18.00;68.49;100574.58;103739;1277;139549;-69
2022/08/30 02:09:31;;;;;;;11.30;5.60;;;;;;;18.02;68.51;100574.14;103527;1276;99315;-68
2022/08/30 02:12:00;;;;;;;9.00;5.30;;;;;;;18.03;68.43;100572.42;103424;1277;138275;-67
2022/08/30 02:14:28;;;;;;;10.20;5.90;;;;;;;18.02;68.43;100570.30;103860;1278;95184;-68
2022/08/30 02:16:56;;;;;;;9.40;5.30;;;;;;;18.02;68.42;100570.69;103494;1277;94360;-68
2022/08/30 02:19:23;;;;;;;9.40;5.20;;;;;;;18.04;68.44;100565.75;103353;1278;138517;-69
2022/08/30 02:21:51;;;;;;;9.60;5.60;;;;;;;18.04;68.36;100568.06;103533;1278;100261;-69
2022/08/30 02:24:20;;;;;;;12.00;5.80;;;;;;;18.03;68.36;100569.05;103370;1279;138284;-68
2022/08/30 02:26:48;;;;;;;9.90;5.80;;;;;;;18.01;68.49;100566.97;103465;1278;94768;-68
2022/08/30 02:29:16;;;;;;;8.60;4.90;;;;;;;18.00;68.67;100567.95;103519;1279;94847;-69
2022/08/30 02:31:44;;;;;;;9.60;5.40;;;;;;;17.97;68.74;100564.72;103337;1279;138743;-70
2022/08/30 02:34:13;;;;;;;10.30;6.10;;;;;;;17.96;68.73;100569.23;103420;1279;99452;-68
2022/08/30 02:36:41;;;;;;;10.20;5.60;;;;;;;17.93;68.82;100574.80;103296;1279;138103;-68
2022/08/30 02:39:12;;;;;;;9.40;6.00;;;;;;;17.89;68.87;100570.62;103429;1278;95570;-68
2022/08/30 02:41:41;;;;;;;9.30;5.20;;;;;;;17.91;69.00;100572.20;103378;1278;138718;-69
2022/08/30 02:44:09;;;;;;;9.50;5.50;;;;;;;17.90;68.98;100576.88;103498;1278;108436;-69
2022/08/30 02:46:38;;;;;;;9.90;5.80;;;;;;;17.89;68.90;100580.69;103486;1279;99326;-68
2022/08/30 02:49:09;;;;;;;9.80;5.50;;;;;;;17.89;69.00;100579.80;103784;1279;138619;-68
2022/08/30 02:51:57;;;;;;;8.20;5.30;;;;;;;17.86;69.29;100580.48;103467;1279;94251;-67
2022/08/30 02:54:25;;;;;;;9.30;5.50;;;;;;;17.83;69.28;100577.27;103407;1277;138723;-68
2022/08/30 02:56:53;;;;;;;11.20;6.10;;;;;;;17.82;69.29;100579.82;103536;1278;109572;-68
2022/08/30 02:59:21;;;;;;;10.30;6.20;;;;;;;17.82;69.41;100582.86;103521;1277;99349;-70
2022/08/30 03:01:49;;;;;;;11.10;5.80;;;;;;;17.80;69.64;100585.16;103336;1277;139340;-69
2022/08/30 03:04:17;;;;;;;9.20;5.90;;;;;;;17.77;69.82;100590.32;103508;1279;94363;-69
2022/08/30 03:06:54;;;;;;;9.60;5.60;;;;;;;17.78;69.72;100590.67;103393;1278;138720;-67
2022/08/30 03:09:22;;;;;;;9.60;6.10;;;;;;;17.78;69.61;100588.65;103535;1279;106195;-68
2022/08/30 03:11:50;;;;;;;11.80;6.20;;;;;;;17.76;69.78;100592.71;103380;1278;138902;-68
2022/08/30 03:14:18;;;;;;;10.00;5.90;;;;;;;17.76;70.03;100593.27;103494;1278;108457;-68
2022/08/30 03:16:46;;;;;;;10.10;6.60;;;;;;;17.76;69.91;100593.11;103465;1278;95330;-68
2022/08/30 03:19:14;;;;;;;11.20;6.10;;;;;;;17.76;69.88;100596.15;103399;1278;139514;-70
2022/08/30 03:21:43;;;;;;;9.20;5.90;;;;;;;17.76;69.95;100599.91;103531;1277;108372;-68
2022/08/30 03:24:12;;;;;;;10.60;5.80;;;;;;;17.75;69.94;100605.02;103378;1279;138930;-69
2022/08/30 03:26:40;;;;;;;11.90;6.10;;;;;;;17.77;69.99;100599.00;103467;1277;109150;-68
2022/08/30 03:29:13;;;;;;;9.80;6.00;;;;;;;17.77;69.82;100596.63;103474;1278;94866;-68
2022/08/30 03:31:41;;;;;;;9.70;5.90;;;;;;;17.76;69.81;100597.05;103268;1279;138256;-68
2022/08/30 03:34:21;;;;;;;8.80;5.80;;;;;;;17.73;70.00;100598.98;103477;1279;108487;-68
2022/08/30 03:36:51;;;;;;;9.30;6.10;;;;;;;17.73;70.10;100595.59;103439;1279;139372;-68
2022/08/30 03:39:21;;;;;;;9.80;6.50;;;;;;;17.75;70.06;100599.62;103512;1279;108782;-68
2022/08/30 03:41:49;;;;;;;10.40;6.80;;;;;;;17.73;70.22;100600.23;103572;1279;138580;-69
2022/08/30 03:44:20;;;;;;;9.60;5.90;;;;;;;17.71;70.25;100598.73;103432;1278;94851;-68
2022/08/30 03:46:48;;;;;;;10.60;6.50;;;;;;;17.73;70.19;100600.23;103663;1277;108711;-68
2022/08/30 03:49:17;;;;;;;10.60;6.20;;;;;;;17.72;70.19;100600.30;103343;1278;138879;-68
2022/08/30 03:51:47;;;;;;;10.80;6.30;;;;;;;17.72;70.12;100602.43;103562;1279;108817;-69
2022/08/30 03:54:16;;;;;;;11.10;6.40;;;;;;;17.71;70.24;100599.09;103314;1278;139246;-70
2022/08/30 03:56:43;;;;;;;11.00;6.20;;;;;;;17.71;70.12;100597.98;103468;1278;94735;-67
2022/08/30 03:59:11;;;;;;;10.90;6.30;;;;;;;17.69;70.27;100602.21;103458;1278;108406;-69
2022/08/30 04:01:40;;;;;;;11.50;6.70;;;;;;;17.71;70.25;100603.95;103341;1279;139055;-68
2022/08/30 04:04:08;;;;;;;11.00;6.30;;;;;;;17.69;70.26;100602.44;103458;1278;108689;-69
2022/08/30 04:06:36;;;;;;;10.10;6.10;;;;;;;17.65;70.41;100601.19;103393;1278;138500;-68
2022/08/30 04:09:04;;;;;;;11.30;6.90;;;;;;;17.65;70.42;100599.40;103405;1279;94347;-69
2022/08/30 04:11:32;;;;;;;9.50;6.40;;;;;;;17.68;70.42;100604.65;103424;1279;108114;-68
2022/08/30 04:14:00;;;;;;;9.90;6.50;;;;;;;17.69;70.49;100603.52;103492;1278;99907;-68
2022/08/30 04:16:28;;;;;;;11.20;6.50;;;;;;;17.63;70.58;100609.40;103471;1277;108762;-68
2022/08/30 04:18:56;;;;;;;11.10;6.90;;;;;;;17.60;70.70;100611.19;103277;1280;138693;-68
2022/08/30 04:21:24;;;;;;;11.40;6.30;;;;;;;17.58;70.90;100615.21;103456;1279;94331;-69
2022/08/30 04:23:52;;;;;;;10.10;6.00;;;;;;;17.59;70.94;100615.71;103349;1279;138423;-69
2022/08/30 04:26:20;;;;;;;10.90;7.00;;;;;;;17.61;70.81;100615.80;103436;1279;99350;-69
2022/08/30 04:28:48;;;;;;;10.60;6.80;;;;;;;17.59;70.90;100618.75;103455;1279;109309;-70
2022/08/30 04:31:17;;;;;;;10.10;6.50;;;;;;;17.62;70.88;100621.13;103215;1281;138693;-68
2022/08/30 04:33:46;;;;;;;11.60;6.70;;;;;;;17.62;71.04;100618.95;103448;1279;94787;-67
2022/08/30 04:36:14;;;;;;;11.10;6.70;;;;;;;17.57;71.20;100622.80;103307;1278;139117;-68
2022/08/30 04:38:42;;;;;;;9.50;6.20;;;;;;;17.54;71.40;100620.09;103442;1279;98922;-68
2022/08/30 04:41:16;;;;;;;10.50;6.70;;;;;;;17.54;71.52;100623.31;103490;1279;109577;-69
2022/08/30 04:43:45;;;;;;;11.00;6.30;;;;;;;17.53;71.68;100626.23;103956;1277;139508;-68
2022/08/30 04:46:13;;;;;;;11.40;6.90;;;;;;;17.55;71.74;100632.07;103680;1277;96077;-69
2022/08/30 04:48:42;;;;;;;11.60;6.70;;;;;;;17.58;71.75;100633.52;103464;1277;137983;-69
2022/08/30 04:51:13;;;;;;;11.70;6.50;;;;;;;17.64;71.70;100634.27;103624;1278;98823;-69
2022/08/30 04:53:42;;;;;;;9.40;6.70;;;;;;;17.65;71.72;100633.14;103710;1279;138800;-69
2022/08/30 04:56:15;;;;;;;10.60;6.90;;;;;;;17.68;71.88;100631.77;103442;1278;94872;-68
2022/08/30 04:58:45;;;;;;;11.20;6.60;;;;;;;17.72;71.72;100636.36;103416;1279;94765;-67
2022/08/30 05:01:15;;;;;;;10.40;6.20;;;;;;;17.75;71.70;100643.42;103272;1280;139659;-68
2022/08/30 05:03:48;;;;;;;10.20;6.60;;;;;;;17.75;71.76;100640.92;103471;1278;99465;-67
2022/08/30 05:06:17;;;;;;;9.60;6.00;;;;;;;17.69;71.75;100644.27;103672;1277;138993;-68
2022/08/30 05:08:45;;;;;;;9.60;5.90;;;;;;;17.67;71.93;100646.01;103400;1278;95008;-68
2022/08/30 05:11:15;;;;;;;8.80;5.30;;;;;;;17.68;71.90;100648.10;104004;1278;94944;-69
2022/08/30 05:13:44;;;;;;;8.10;5.00;;;;;;;17.69;71.95;100654.66;103319;1279;138725;-68
2022/08/30 05:16:16;;;;;;;7.10;4.40;;;;;;;17.68;71.98;100650.23;103559;1278;99696;-67
2022/08/30 05:18:46;;;;;;;8.30;4.70;;;;;;;17.63;71.86;100648.89;103281;1278;138193;-69
2022/08/30 05:21:20;;;;;;;7.80;4.20;;;;;;;17.63;72.16;100648.14;103524;1277;94729;-69
2022/08/30 05:23:49;;;;;;;7.90;3.80;;;;;;;17.67;72.10;100644.94;103309;1279;139197;-69
2022/08/30 05:26:37;;;;;;;8.80;4.50;;;;;;;17.78;71.66;100651.55;103517;1279;108487;-69
2022/08/30 05:29:05;;;;;;;7.20;3.80;;;;;;;17.82;71.66;100643.58;103620;1277;99446;-69
2022/08/30 05:31:35;;;;;;;6.80;3.40;;;;;;;17.81;71.43;100648.88;103313;1278;138251;-68
2022/08/30 05:34:04;;;;;;;7.30;3.70;;;;;;;17.75;71.45;100649.89;103532;1279;94779;-68
2022/08/30 05:36:33;;;;;;;7.70;3.80;;;;;;;17.77;71.49;100653.52;103698;1278;138626;-68
2022/08/30 05:39:02;;;;;;;7.30;4.00;;;;;;;17.79;71.53;100658.98;103963;1279;108566;-69
2022/08/30 05:41:32;;;;;;;7.20;3.50;;;;;;;17.83;71.52;100658.95;103473;1278;99514;-70
2022/08/30 05:44:02;;;;;;;7.70;3.40;;;;;;;17.86;71.39;100664.02;103464;1278;109943;-67
2022/08/30 05:46:33;;;;;;;7.80;3.90;;;;;;;17.88;71.26;100666.05;103600;1278;94613;-67
2022/08/30 05:49:06;;;;;;;7.50;3.60;;;;;;;17.89;71.19;100666.58;103320;1281;138510;-69
2022/08/30 05:51:37;;;;;;;7.10;3.70;;;;;;;17.86;71.28;100668.36;103462;1278;109062;-70
2022/08/30 05:54:13;;;;;;;7.60;3.50;;;;;;;17.85;71.25;100662.83;103639;1279;138668;-68
2022/08/30 05:56:44;;;;;;;7.50;3.40;;;;;;;17.82;71.30;100656.70;103861;1279;108857;-69
2022/08/30 05:59:13;;;;;;;6.50;3.30;;;;;;;17.85;71.16;100659.80;103447;1278;94362;-69
2022/08/30 06:01:45;;;;;;;6.50;3.40;;;;;;;17.93;71.05;100656.49;103312;1279;138125;-69
2022/08/30 06:04:13;;;;;;;6.60;3.20;;;;;;;18.02;70.96;100657.82;103695;1278;108409;-68
2022/08/30 06:06:43;;;;;;;6.60;3.30;;;;;;;18.04;70.72;100654.48;103397;1278;139358;-68
2022/08/30 06:09:12;;;;;;;7.20;3.10;;;;;;;18.03;70.61;100658.30;103488;1278;108804;-68
2022/08/30 06:11:42;;;;;;;6.90;3.40;;;;;;;18.09;70.41;100654.05;103443;1279;138581;-69
2022/08/30 06:14:10;;;;;;;7.30;2.90;;;;;;;18.14;70.13;100653.61;103463;1278;95504;-70
2022/08/30 06:16:39;;;;;;;7.40;2.90;;;;;;;18.17;69.98;100659.20;103444;1278;108468;-68
2022/08/30 06:19:09;;;;;;;6.50;2.80;;;;;;;18.21;70.03;100660.78;103749;1278;138323;-68
2022/08/30 06:21:39;;;;;;;7.10;2.90;;;;;;;18.32;69.93;100666.51;103678;1278;108947;-68
2022/08/30 06:24:09;;;;;;;6.20;2.90;;;;;;;18.41;69.63;100669.75;103535;1278;138507;-67
2022/08/30 06:26:44;;;;;;;5.60;2.60;;;;;;;18.39;69.47;100676.34;103428;1278;94380;-68
2022/08/30 06:29:15;;;;;;;5.90;2.70;;;;;;;18.44;69.23;100678.09;103634;1278;108377;-68
2022/08/30 06:31:44;;;;;;;5.90;2.30;;;;;;;18.41;69.17;100678.04;103405;1278;139037;-69
2022/08/30 06:34:15;;;;;;;5.90;2.60;;;;;;;18.41;69.38;100677.69;103687;1277;106654;-69
2022/08/30 06:36:43;;;;;;;6.30;2.70;;;;;;;18.40;69.38;100682.94;103889;1277;137921;-68
2022/08/30 06:39:10;;;;;;;5.50;2.40;;;;;;;18.42;69.31;100680.68;103481;1278;96917;-69
2022/08/30 06:41:40;;;;;;;5.60;2.60;;;;;;;18.35;69.39;100678.16;103294;1278;138773;-69
2022/08/30 06:44:28;;;;;;;5.50;2.40;;;;;;;18.36;69.42;100681.92;103464;1279;100635;-69
2022/08/30 06:46:57;;;;;;;6.50;2.60;;;;;;;18.33;69.39;100678.98;103464;1278;108200;-65
2022/08/30 06:49:25;;;;;;;5.40;2.20;;;;;;;18.34;69.65;100682.36;103545;1278;138343;-69
2022/08/30 06:51:53;;;;;;;5.50;2.30;;;;;;;18.40;69.58;100681.88;103460;1278;94624;-68
2022/08/30 06:54:21;;;;;;;5.00;2.10;;;;;;;18.46;69.36;100684.78;103382;1279;138279;-70
2022/08/30 06:56:49;;;;;;;5.20;2.20;;;;;;;18.45;69.20;100688.09;103479;1277;99833;-69
2022/08/30 06:59:26;;;;;;;5.00;2.00;;;;;;;18.46;69.25;100689.24;103497;1278;108818;-69
2022/08/30 07:01:56;;;;;;;4.70;2.20;;;;;;;18.53;69.30;100694.80;103524;1277;138976;-69
2022/08/30 07:04:24;;;;;;;6.10;2.50;;;;;;;18.58;69.05;100698.00;103910;1277;94970;-69
2022/08/30 07:06:54;;;;;;;9.20;2.70;;;;;;;18.58;69.19;100697.05;103328;1278;138231;-69
2022/08/30 07:09:21;;;;;;;5.60;2.40;;;;;;;18.59;69.27;100703.48;103469;1277;99422;-69
2022/08/30 07:11:52;;;;;;;5.30;2.30;;;;;;;18.64;69.42;100704.13;104039;1278;138292;-69
2022/08/30 07:14:20;;;;;;;5.50;2.40;;;;;;;18.73;69.22;100709.01;103508;1278;94328;-68
2022/08/30 07:16:48;;;;;;;5.70;2.30;;;;;;;18.80;68.92;100709.34;103549;1277;94950;-66
2022/08/30 07:19:19;;;;;;;6.20;2.40;;;;;;;18.87;68.78;100706.98;103303;1278;138467;-68
2022/08/30 07:21:49;;;;;;;6.10;1.90;;;;;;;18.91;68.69;100708.79;103401;1278;99525;-68
2022/08/30 07:24:19;;;;;;;4.30;1.70;;;;;;;18.99;68.71;100712.48;103282;1278;139132;-68
2022/08/30 07:26:50;;;;;;;5.40;1.90;;;;;;;19.10;68.13;100709.64;103944;1278;95625;-67
2022/08/30 07:29:20;;;;;;;5.20;2.00;;;;;;;19.20;67.92;100712.71;103664;1279;94316;-70
2022/08/30 07:31:48;;;;;;;4.30;1.50;;;;;;;19.23;67.53;100714.16;103282;1279;137908;-69
2022/08/30 07:34:17;;;;;;;4.70;1.50;;;;;;;19.26;67.35;100713.79;103338;1279;97572;-69
2022/08/30 07:36:48;;;;;;;5.60;1.60;;;;;;;19.32;66.75;100717.44;103227;1278;138591;-68
2022/08/30 07:39:16;;;;;;;6.80;1.90;;;;;;;19.34;66.70;100722.02;103391;1279;95583;-68
2022/08/30 07:41:44;;;;;;;4.40;1.60;;;;;;;19.38;66.94;100720.50;103217;1279;138504;-68
2022/08/30 07:44:12;;;;;;;5.60;1.90;;;;;;;19.41;66.79;100722.31;103442;1279;109283;-69
2022/08/30 07:46:40;;;;;;;5.30;1.80;;;;;;;19.39;66.72;100723.67;103448;1279;99995;-69
2022/08/30 07:49:10;;;;;;;5.50;2.00;;;;;;;19.42;66.95;100725.34;103429;1279;139419;-69
2022/08/30 07:51:39;;;;;;;5.80;2.10;;;;;;;19.48;67.24;100724.77;103446;1279;94350;-68
2022/08/30 07:54:08;;;;;;;4.90;1.70;;;;;;;19.55;66.93;100725.99;103363;1279;137958;-68
2022/08/30 07:56:36;;;;;;;5.20;2.00;;;;;;;19.61;66.63;100726.52;103881;1278;108464;-68
2022/08/30 07:59:05;;;;;;;5.10;1.70;;;;;;;19.66;66.96;100726.45;103513;1279;99839;-70
2022/08/30 08:01:32;;;;;;;5.00;1.90;;;;;;;19.77;66.43;100724.39;103246;1279;137786;-70
2022/08/30 08:04:01;;;;;;;4.50;1.80;;;;;;;19.93;66.17;100729.39;103517;1279;94325;-70
2022/08/30 08:06:29;;;;;;;5.10;1.70;;;;;;;20.01;66.18;100731.23;103318;1279;137921;-68
2022/08/30 08:09:02;;;;;;;4.90;1.70;;;;;;;20.03;66.04;100734.67;103510;1279;107976;-69
2022/08/30 08:11:32;;;;;;;4.50;1.50;;;;;;;20.08;65.32;100729.21;103508;1279;98713;-69
2022/08/30 08:14:02;;;;;;;4.60;1.60;;;;;;;20.11;65.02;100732.27;104425;1279;109253;-69
2022/08/30 08:16:36;;;;;;;6.50;1.60;;;;;;;20.15;64.91;100735.41;103586;1279;94757;-68
2022/08/30 08:19:07;;;;;;;4.00;1.30;;;;;;;20.19;64.27;100736.63;103532;1279;138084;-69
2022/08/30 08:21:36;;;;;;;4.20;1.60;;;;;;;20.24;64.24;100735.41;103451;1281;108420;-69
2022/08/30 08:24:05;;;;;;;5.80;1.40;;;;;;;20.34;64.32;100734.79;103571;1279;138661;-69
2022/08/30 08:26:35;;;;;;;4.20;1.40;;;;;;;20.44;63.85;100733.83;103518;1279;108736;-69
2022/08/30 08:29:06;;;;;;;5.60;1.80;;;;;;;20.53;64.10;100729.48;103378;1279;94323;-70
2022/08/30 08:31:35;;;;;;;4.50;1.30;;;;;;;20.70;64.00;100734.74;103279;1279;138110;-69
2022/08/30 08:34:04;;;;;;;4.60;1.20;;;;;;;20.82;63.36;100737.59;103469;1279;106989;-70
2022/08/30 08:36:34;;;;;;;4.00;1.40;;;;;;;20.84;62.64;100737.46;104302;1279;137955;-70
2022/08/30 08:39:04;;;;;;;4.50;1.60;;;;;;;20.86;62.16;100742.61;103540;1278;106923;-70
2022/08/30 08:42:02;;;;;;;4.30;1.50;;;;;;;20.84;62.05;100743.12;103580;1278;94368;-69
2022/08/30 08:44:49;;;;;;;4.30;1.50;;;;;;;20.91;62.27;100742.14;103552;1278;94732;-69
2022/08/30 08:47:40;;;;;;;5.00;1.30;;;;;;;21.02;62.28;100743.00;103376;1279;106649;-71
2022/08/30 08:50:16;;;;;;;5.60;2.50;;;;;;;21.24;61.63;100747.18;103421;1279;99359;-68
2022/08/30 08:56:13;;;;;;;4.60;1.50;;;;;;;21.60;60.85;100754.45;103248;1278;94578;-70
2022/08/30 08:58:45;;;;;;;3.30;1.20;;;;;;;21.53;60.62;100749.65;103733;1279;94578;-66
2022/08/30 09:01:20;;;;;;;4.80;1.30;;;;;;;21.48;60.52;100749.60;102425;1279;1483318;-66
2022/08/30 09:03:49;;;;;;;5.90;1.20;;;;;;;21.41;60.43;100751.87;103442;1279;99367;-67
2022/08/30 09:06:47;;;;;;;3.00;1.00;;;;;;;21.34;60.72;100751.06;103489;1279;141436;-67
2022/08/30 09:09:19;;;;;;;3.00;1.10;;;;;;;21.37;60.72;100749.20;103398;1279;94750;-67
2022/08/30 09:11:47;;;;;;;3.50;1.00;;;;;;;21.40;60.64;100754.30;103158;1279;137953;-67
2022/08/30 09:14:23;;;;;;;3.20;1.00;;;;;;;21.38;60.29;100753.30;103424;1279;108286;-69
2022/08/30 09:17:04;;;;;;;3.20;1.00;;;;;;;21.41;60.27;100752.63;103392;1281;99994;-68
2022/08/30 09:19:41;;;;;;;3.60;1.00;;;;;;;21.39;60.48;100753.42;103403;1279;137230;-66
2022/08/30 09:22:45;;;;;;;4.10;1.00;;;;;;;21.39;60.29;100753.09;103401;1279;95862;-67
2022/08/30 09:25:32;;;;;;;3.00;0.90;;;;;;;21.43;60.71;100750.27;103554;1279;138173;-68
2022/08/30 09:28:11;;;;;;;3.50;1.00;;;;;;;21.43;60.30;100755.31;103422;1279;108642;-68
2022/08/30 09:30:57;;;;;;;3.90;1.20;;;;;;;21.42;60.08;100751.98;103386;1279;137811;-67
2022/08/30 09:33:27;;;;;;;3.40;0.90;;;;;;;21.40;60.22;100755.16;103434;1279;108931;-66
2022/08/30 09:35:56;;;;;;;3.90;1.20;;;;;;;21.39;60.33;100754.67;103501;1278;138263;-67
2022/08/30 09:38:32;;;;;;;3.50;1.20;;;;;;;21.40;60.61;100758.80;103423;1279;97054;-67
2022/08/30 09:41:48;;;;;;;4.80;1.30;;;;;;;21.42;60.80;100765.58;103421;1279;109775;-69
2022/08/30 09:44:20;;;;;;;4.50;1.10;;;;;;;21.40;60.70;100764.74;103206;1279;99798;-67
2022/08/30 09:47:00;;;;;;;5.30;1.30;;;;;;;21.39;60.47;100760.83;103410;1279;109025;-68
2022/08/30 09:49:32;;;;;;;4.50;1.30;;;;;;;21.36;60.57;100763.02;103491;1279;138096;-69
2022/08/30 09:52:20;;;;;;;3.40;1.20;;;;;;;21.39;60.97;100763.36;103483;1279;94405;-68
2022/08/30 09:55:32;;;;;;;3.60;1.30;;;;;;;21.49;60.92;100766.69;103315;1279;138645;-67
2022/08/30 10:02:00;;;;;;;3.70;1.00;;;;;;;21.64;59.82;100769.17;103175;1281;138219;-68
2022/08/30 10:05:06;;;;;;;3.70;0.90;;;;;;;21.74;59.58;100769.78;103312;1279;94816;-69
2022/08/30 10:07:51;;;;;;;5.40;1.20;;;;;;;21.77;59.78;100767.91;103387;1279;137799;-70
2022/08/30 10:10:39;;;;;;;3.40;0.90;;;;;;;21.72;59.89;100767.54;103506;1279;108355;-67
2022/08/30 10:13:29;;;;;;;2.90;0.80;;;;;;;21.71;59.60;100770.52;103301;1278;139313;-70
2022/08/30 10:16:21;;;;;;;3.50;0.80;;;;;;;21.75;59.47;100771.48;103360;1279;108813;-67
2022/08/30 10:19:07;;;;;;;3.40;0.90;;;;;;;21.72;59.43;100771.50;103593;1279;138163;-70
2022/08/30 10:21:53;;;;;;;2.70;0.90;;;;;;;21.68;59.49;100775.73;103311;1278;94364;-67
2022/08/30 10:24:29;;;;;;;2.40;0.70;;;;;;;21.63;59.16;100778.61;103197;1279;138093;-67
2022/08/30 10:27:15;;;;;;;3.10;0.90;;;;;;;21.57;59.48;100781.73;103289;1279;99326;-66
2022/08/30 10:29:58;;;;;;;3.00;0.70;;;;;;;21.52;59.23;100781.30;104468;1279;138263;-66
2022/08/30 10:32:48;;;;;;;2.40;0.60;;;;;;;21.43;58.89;100784.05;103415;1279;94680;-66
2022/08/30 10:35:23;;;;;;;2.50;0.70;;;;;;;21.43;59.34;100779.70;103286;1279;95440;-66
2022/08/30 10:38:00;;;;;;;3.80;0.90;;;;;;;21.47;59.25;100777.84;103256;1279;137518;-66
2022/08/30 10:43:37;;;;;;;3.20;0.60;;;;;;;21.47;59.07;100779.99;103953;1279;137857;-67
2022/08/30 10:46:30;;;;;;;2.60;0.60;;;;;;;21.52;58.87;100779.12;103331;1279;94735;-66
2022/08/30 10:49:01;;;;;;;1.90;0.50;;;;;;;21.51;58.39;100780.14;103226;1279;141115;-69
2022/08/30 10:51:43;;;;;;;6.70;3.40;;;;;;;21.50;58.74;100781.42;107207;1279;108269;-67
2022/08/30 10:54:46;;;;;;;2.50;0.60;;;;;;;21.49;58.59;100780.23;107125;1278;138055;-67
2022/08/30 10:57:14;;;;;;;2.60;0.80;;;;;;;21.43;58.77;100781.04;105366;1279;109732;-67
2022/08/30 10:59:47;;;;;;;2.90;0.60;;;;;;;21.41;59.23;100780.42;103283;1279;138126;-66
2022/08/30 11:02:38;;;;;;;3.70;1.10;;;;;;;21.42;59.16;100775.67;103404;1279;95667;-68
2022/08/30 11:05:42;;;;;;;2.40;0.70;;;;;;;21.45;59.38;100777.97;103605;1279;108385;-67
2022/08/30 11:08:48;;;;;;;3.40;0.70;;;;;;;21.52;59.40;100778.60;103456;1279;98420;-67
2022/08/30 11:11:26;;;;;;;4.50;0.90;;;;;;;21.51;58.83;100777.04;103498;1279;109541;-68
2022/08/30 11:14:01;;;;;;;3.90;0.90;;;;;;;21.53;59.04;100773.31;103280;1279;137872;-72
2022/08/30 11:16:39;;;;;;;2.90;0.70;;;;;;;21.54;58.60;100773.64;103388;1279;94560;-68
2022/08/30 11:19:38;;;;;;;3.80;0.70;;;;;;;21.51;58.45;100770.34;103359;1279;138155;-68
2022/08/30 11:22:21;;;;;;;3.10;0.70;;;;;;;21.49;58.62;100772.28;103301;1279;99525;-68
2022/08/30 11:25:10;;;;;;;2.50;0.60;;;;;;;21.46;58.54;100771.73;103459;1279;138401;-67
2022/08/30 11:27:55;;;;;;;2.30;0.60;;;;;;;21.39;58.70;100775.65;103770;1279;94758;-68
2022/08/30 11:30:23;;;;;;;2.20;0.60;;;;;;;21.36;58.84;100776.59;104779;1279;139045;-67
2022/08/30 11:33:11;;;;;;;2.30;0.60;;;;;;;21.34;58.87;100778.68;103687;1279;108158;-67
2022/08/30 11:35:44;;;;;;;3.00;0.70;;;;;;;21.34;58.94;100779.42;103391;1279;138825;-70
2022/08/30 11:38:38;;;;;;;2.70;0.70;;;;;;;21.38;58.84;100777.34;107190;1279;109111;-67
2022/08/30 11:41:12;;;;;;;2.80;0.60;;;;;;;21.47;58.65;100783.83;104180;1279;96598;-67
2022/08/30 11:43:43;;;;;;;2.30;0.40;;;;;;;21.54;57.80;100781.02;105723;1279;137950;-68
2022/08/30 11:46:18;;;;;;;2.40;0.60;;;;;;;21.59;57.12;100781.26;103513;1279;108448;-68
2022/08/30 11:48:51;;;;;;;1.90;0.50;;;;;;;21.62;56.95;100777.83;107120;1279;138591;-69